createdAt,value
2018-11-26T00:00:37.196Z,152.93
2018-11-26T00:03:13.201Z,157.83
2018-11-26T00:05:49.791Z,141.93
2018-11-26T00:08:44.780Z,136.30
2018-11-26T00:11:28.556Z,151.70
2018-11-26T00:14:04.345Z,144.80
2018-11-26T00:16:41.221Z,141.70
2018-11-26T00:19:17.020Z,142.37
2018-11-26T00:21:52.812Z,138.47
2018-11-26T00:24:28.669Z,127.90
2018-11-26T00:27:04.423Z,142.43
2018-11-26T00:29:40.252Z,133.33
2018-11-26T00:32:15.898Z,139.67
2018-11-26T00:34:51.762Z,131.20
2018-11-26T00:37:27.638Z,139.13
2018-11-26T00:40:03.422Z,137.40
2018-11-26T00:42:41.668Z,128.00
2018-11-26T00:45:17.272Z,141.90
2018-11-26T00:47:53.241Z,150.77
2018-11-26T00:50:29.092Z,139.60
2018-11-26T00:53:05.146Z,156.73
2018-11-26T00:55:40.604Z,148.83
2018-11-26T00:58:16.542Z,146.10
2018-11-26T01:00:52.736Z,157.20
2018-11-26T01:03:28.531Z,153.03
2018-11-26T01:06:07.925Z,174.77
2018-11-26T01:08:44.309Z,146.10
2018-11-26T01:11:20.105Z,154.47
2018-11-26T01:13:55.967Z,148.80
2018-11-26T01:16:31.828Z,150.93
2018-11-26T01:19:07.693Z,151.67
2018-11-26T01:21:43.613Z,142.40
2018-11-26T01:24:19.552Z,132.33
2018-11-26T01:26:55.235Z,143.27
2018-11-26T01:29:30.993Z,130.90
2018-11-26T01:32:06.764Z,138.30
2018-11-26T01:34:42.555Z,149.40
2018-11-26T01:37:18.347Z,130.97
2018-11-26T01:39:54.104Z,145.60
2018-11-26T01:42:29.972Z,131.47
2018-11-26T01:45:06.495Z,130.23
2018-11-26T01:47:42.672Z,135.37
2018-11-26T01:50:18.509Z,113.93
2018-11-26T01:52:54.416Z,105.77
2018-11-26T01:55:30.219Z,112.17
2018-11-26T01:58:06.031Z,122.60
2018-11-26T02:00:42.094Z,106.50
2018-11-26T02:03:17.823Z,112.70
2018-11-26T02:05:53.811Z,113.60
2018-11-26T02:08:34.693Z,107.97
2018-11-26T02:11:10.771Z,113.60
2018-11-26T02:13:46.741Z,123.27
2018-11-26T02:16:22.506Z,109.93
2018-11-26T02:18:58.477Z,104.90
2018-11-26T02:21:34.075Z,106.67
2018-11-26T02:24:10.100Z,102.07
2018-11-26T02:26:46.047Z,104.43
2018-11-26T02:29:21.934Z,95.77
2018-11-26T02:31:57.971Z,96.30
2018-11-26T02:34:33.686Z,99.60
2018-11-26T02:37:09.375Z,98.40
2018-11-26T02:39:45.645Z,92.67
2018-11-26T02:42:21.801Z,87.73
2018-11-26T02:44:58.239Z,91.07
2018-11-26T02:47:33.857Z,90.27
2018-11-26T02:50:10.531Z,100.03
2018-11-26T02:52:46.658Z,95.13
2018-11-26T02:55:22.842Z,98.57
2018-11-26T02:57:58.526Z,95.33
2018-11-26T03:00:34.536Z,98.77
2018-11-26T03:03:10.378Z,92.53
2018-11-26T03:05:46.075Z,87.77
2018-11-26T03:08:22.454Z,92.20
2018-11-26T03:13:39.658Z,93.73
2018-11-26T03:16:15.479Z,99.73
2018-11-26T03:18:52.309Z,86.00
2018-11-26T03:21:28.077Z,84.77
2018-11-26T03:24:03.906Z,88.63
2018-11-26T03:26:39.983Z,76.60
2018-11-26T03:29:15.675Z,73.90
2018-11-26T03:31:51.464Z,80.00
2018-11-26T03:34:27.550Z,72.37
2018-11-26T03:37:03.355Z,71.63
2018-11-26T03:39:39.918Z,72.50
2018-11-26T03:42:15.781Z,61.83
2018-11-26T03:44:54.547Z,70.57
2018-11-26T03:47:30.165Z,70.20
2018-11-26T03:50:06.398Z,82.83
2018-11-26T03:52:44.531Z,94.37
2018-11-26T03:55:20.588Z,86.53
2018-11-26T03:57:56.271Z,85.67
2018-11-26T04:00:32.357Z,98.10
2018-11-26T04:03:08.265Z,94.20
2018-11-26T04:05:43.792Z,92.40
2018-11-26T04:08:20.735Z,104.23
2018-11-26T04:10:57.308Z,109.53
2018-11-26T04:13:33.054Z,105.97
2018-11-26T04:16:08.784Z,99.67
2018-11-26T04:18:44.725Z,114.83
2018-11-26T04:21:20.665Z,100.23
2018-11-26T04:23:56.640Z,101.87
2018-11-26T04:26:33.332Z,110.17
2018-11-26T04:29:09.229Z,103.40
2018-11-26T04:31:44.910Z,115.17
2018-11-26T04:34:20.955Z,109.53
2018-11-26T04:36:56.925Z,102.77
2018-11-26T04:39:32.808Z,103.53
2018-11-26T04:42:08.859Z,102.00
2018-11-26T04:44:44.841Z,131.87
2018-11-26T04:47:20.627Z,102.20
2018-11-26T04:49:56.372Z,117.00
2018-11-26T04:52:32.303Z,117.30
2018-11-26T04:55:09.961Z,114.77
2018-11-26T04:57:46.780Z,121.60
2018-11-26T05:00:23.906Z,103.70
2018-11-26T05:02:59.803Z,113.47
2018-11-26T05:05:35.479Z,123.57
2018-11-26T05:08:11.192Z,115.70
2018-11-26T05:10:47.036Z,124.90
2018-11-26T05:13:24.030Z,122.60
2018-11-26T05:15:59.820Z,131.07
2018-11-26T05:18:36.408Z,125.80
2018-11-26T05:21:12.522Z,126.43
2018-11-26T05:23:48.275Z,144.87
2018-11-26T05:26:24.244Z,135.13
2018-11-26T05:29:00.029Z,129.00
2018-11-26T05:31:36.031Z,124.07
2018-11-26T05:34:11.771Z,123.00
2018-11-26T05:36:47.518Z,115.70
2018-11-26T05:39:23.296Z,113.63
2018-11-26T05:41:58.965Z,133.17
2018-11-26T05:44:35.899Z,112.07
2018-11-26T05:47:11.681Z,109.10
2018-11-26T05:49:47.971Z,106.97
2018-11-26T05:52:26.987Z,109.87
2018-11-26T05:55:03.503Z,111.87
2018-11-26T05:57:39.587Z,106.17
2018-11-26T06:00:19.523Z,107.33
2018-11-26T06:02:55.159Z,116.97
2018-11-26T06:05:30.750Z,112.63
2018-11-26T06:08:06.684Z,112.13
2018-11-26T06:10:42.568Z,106.00
2018-11-26T06:13:18.334Z,112.37
2018-11-26T06:15:54.108Z,109.77
2018-11-26T06:18:30.533Z,107.93
2018-11-26T06:21:07.501Z,107.07
2018-11-26T06:23:43.976Z,108.83
2018-11-26T06:26:20.329Z,114.13
2018-11-26T06:28:56.002Z,110.70
2018-11-26T06:31:32.218Z,117.97
2018-11-26T06:34:07.945Z,109.90
2018-11-26T06:36:44.108Z,112.83
2018-11-26T06:39:19.981Z,105.53
2018-11-26T06:41:56.414Z,121.40
2018-11-26T06:44:32.706Z,113.67
2018-11-26T06:47:08.406Z,122.10
2018-11-26T06:49:44.151Z,113.73
2018-11-26T06:52:20.044Z,122.67
2018-11-26T06:54:55.908Z,112.87
2018-11-26T06:57:31.783Z,108.77
2018-11-26T07:00:14.970Z,121.70
2018-11-26T07:02:51.445Z,119.40
2018-11-26T07:05:27.239Z,109.63
2018-11-26T07:08:03.023Z,112.57
2018-11-26T07:10:38.859Z,117.97
2018-11-26T07:13:14.776Z,116.53
2018-11-26T07:15:51.547Z,122.37
2018-11-26T07:18:27.266Z,114.90
2018-11-26T07:21:03.258Z,107.03
2018-11-26T07:23:38.740Z,113.37
2018-11-26T07:26:14.466Z,107.03
2018-11-26T07:28:50.945Z,106.37
2018-11-26T07:31:27.492Z,101.77
2018-11-26T07:34:03.409Z,103.13
2018-11-26T07:36:39.254Z,103.23
2018-11-26T07:39:15.132Z,104.90
2018-11-26T07:41:51.272Z,95.43
2018-11-26T07:44:27.350Z,96.10
2018-11-26T07:47:03.837Z,116.13
2018-11-26T07:49:40.727Z,100.40
2018-11-26T07:52:16.732Z,109.67
2018-11-26T07:54:52.485Z,100.17
2018-11-26T07:57:28.103Z,108.97
2018-11-26T08:00:07.724Z,93.87
2018-11-26T08:02:44.193Z,89.40
2018-11-26T08:05:21.498Z,92.90
2018-11-26T08:07:58.894Z,90.67
2018-11-26T08:10:34.761Z,91.30
2018-11-26T08:13:10.973Z,89.30
2018-11-26T08:15:47.552Z,99.23
2018-11-26T08:18:23.430Z,93.73
2018-11-26T08:20:59.017Z,96.33
2018-11-26T08:23:35.016Z,90.80
2018-11-26T08:26:10.734Z,94.27
2018-11-26T08:28:46.965Z,103.83
2018-11-26T08:31:22.874Z,92.33
2018-11-26T08:33:58.776Z,101.90
2018-11-26T08:36:38.773Z,102.53
2018-11-26T08:39:21.041Z,96.50
2018-11-26T08:41:57.496Z,98.40
2018-11-26T08:44:45.019Z,93.53
2018-11-26T08:47:27.112Z,82.93
2018-11-26T08:50:03.346Z,84.03
2018-11-26T08:52:39.269Z,83.10
2018-11-26T08:55:16.372Z,82.93
2018-11-26T08:57:51.966Z,75.67
2018-11-26T09:00:27.602Z,73.13
2018-11-26T09:03:03.536Z,70.53
2018-11-26T09:05:45.542Z,83.00
2018-11-26T09:08:21.948Z,75.10
2018-11-26T09:10:57.570Z,72.03
2018-11-26T09:13:33.349Z,80.47
2018-11-26T09:16:08.983Z,73.47
2018-11-26T09:18:44.709Z,78.23
2018-11-26T09:21:20.278Z,71.83
2018-11-26T09:23:56.247Z,78.70
2018-11-26T09:26:32.167Z,82.57
2018-11-26T09:29:07.743Z,72.40
2018-11-26T09:31:43.725Z,68.10
2018-11-26T09:34:19.446Z,83.77
2018-11-26T09:36:55.363Z,74.83
2018-11-26T09:39:30.988Z,81.83
2018-11-26T09:42:06.766Z,83.07
2018-11-26T09:44:42.403Z,76.20
2018-11-26T09:47:18.400Z,83.67
2018-11-26T09:49:54.400Z,79.87
2018-11-26T09:52:30.233Z,81.50
2018-11-26T09:55:06.647Z,81.70
2018-11-26T09:57:42.980Z,89.43
2018-11-26T10:00:23.756Z,80.80
2018-11-26T10:02:59.853Z,80.03
2018-11-26T10:05:36.566Z,83.20
2018-11-26T10:08:12.342Z,79.17
2018-11-26T10:10:48.170Z,80.47
2018-11-26T10:13:23.928Z,83.00
2018-11-26T10:15:59.667Z,82.47
2018-11-26T10:18:35.618Z,81.17
2018-11-26T10:21:11.317Z,83.50
2018-11-26T10:23:47.958Z,81.83
2018-11-26T10:26:23.611Z,74.97
2018-11-26T10:29:00.065Z,74.50
2018-11-26T10:31:36.724Z,73.47
2018-11-26T10:34:13.055Z,75.00
2018-11-26T10:36:48.950Z,72.17
2018-11-26T10:39:25.685Z,73.00
2018-11-26T10:42:01.768Z,83.80
2018-11-26T10:44:38.416Z,78.00
2018-11-26T10:47:14.555Z,81.67
2018-11-26T10:49:50.521Z,70.83
2018-11-26T10:52:27.707Z,78.30
2018-11-26T10:55:04.366Z,81.47
2018-11-26T10:57:40.983Z,71.93
2018-11-26T11:00:22.777Z,65.40
2018-11-26T11:02:59.594Z,65.10
2018-11-26T11:05:36.951Z,74.93
2018-11-26T11:08:13.590Z,61.50
2018-11-26T11:10:49.699Z,61.30
2018-11-26T11:13:25.737Z,56.70
2018-11-26T11:16:01.609Z,55.27
2018-11-26T11:18:37.303Z,53.53
2018-11-26T11:21:13.204Z,53.10
2018-11-26T11:23:49.541Z,53.43
2018-11-26T11:26:26.169Z,50.17
2018-11-26T11:29:01.976Z,44.73
2018-11-26T11:31:37.904Z,47.03
2018-11-26T11:34:14.001Z,43.73
2018-11-26T11:36:51.300Z,46.50
2018-11-26T11:39:27.056Z,42.70
2018-11-26T11:42:03.004Z,45.07
2018-11-26T11:44:39.010Z,44.30
2018-11-26T11:47:14.883Z,46.13
2018-11-26T11:49:50.824Z,51.40
2018-11-26T11:52:26.613Z,44.67
2018-11-26T11:55:02.452Z,45.23
2018-11-26T11:57:38.745Z,45.37
2018-11-26T12:00:29.058Z,39.40
2018-11-26T12:03:10.315Z,41.27
2018-11-26T12:05:46.742Z,43.33
2018-11-26T12:08:22.799Z,49.77
2018-11-26T12:10:58.674Z,45.63
2018-11-26T12:13:35.473Z,42.60
2018-11-26T12:16:12.822Z,49.53
2018-11-26T12:18:49.016Z,45.13
2018-11-26T12:21:24.853Z,42.73
2018-11-26T12:24:01.047Z,39.73
2018-11-26T12:26:37.677Z,46.03
2018-11-26T12:29:14.460Z,46.13
2018-11-26T12:31:51.230Z,38.20
2018-11-26T12:34:27.318Z,46.00
2018-11-26T12:37:04.084Z,38.20
2018-11-26T12:39:40.002Z,38.00
2018-11-26T12:42:16.489Z,37.40
2018-11-26T12:44:53.712Z,36.80
2018-11-26T12:47:32.729Z,39.40
2018-11-26T12:50:09.303Z,34.80
2018-11-26T12:52:45.362Z,41.50
2018-11-26T12:55:22.801Z,37.33
2018-11-26T12:57:59.311Z,35.00
2018-11-26T13:00:37.096Z,33.77
2018-11-26T13:03:14.807Z,33.87
2018-11-26T13:05:51.332Z,34.10
2018-11-26T13:08:27.150Z,35.13
2018-11-26T13:11:03.045Z,31.50
2018-11-26T13:13:38.827Z,35.73
2018-11-26T13:16:14.666Z,38.53
2018-11-26T13:18:50.327Z,37.47
2018-11-26T13:21:26.116Z,36.50
2018-11-26T13:24:02.085Z,34.47
2018-11-26T13:26:38.955Z,35.33
2018-11-26T13:29:16.018Z,35.47
2018-11-26T13:31:52.193Z,36.23
2018-11-26T13:34:28.579Z,38.00
2018-11-26T13:37:04.763Z,41.03
2018-11-26T13:39:40.831Z,42.80
2018-11-26T13:42:17.295Z,47.80
2018-11-26T13:44:53.559Z,52.50
2018-11-26T13:47:29.245Z,57.30
2018-11-26T13:50:05.803Z,53.93
2018-11-26T13:52:41.919Z,53.77
2018-11-26T13:55:19.731Z,52.30
2018-11-26T13:57:55.848Z,55.07
2018-11-26T14:00:31.698Z,57.00
2018-11-26T14:03:07.655Z,60.93
2018-11-26T14:05:44.475Z,61.93
2018-11-26T14:08:21.062Z,57.27
2018-11-26T14:10:58.137Z,53.93
2018-11-26T14:13:34.094Z,54.30
2018-11-26T14:16:09.954Z,56.17
2018-11-26T14:18:45.981Z,57.93
2018-11-26T14:21:22.035Z,51.30
2018-11-26T14:23:58.491Z,52.27
2018-11-26T14:26:35.605Z,53.87
2018-11-26T14:29:12.111Z,50.80
2018-11-26T14:31:47.860Z,53.63
2018-11-26T14:34:23.722Z,45.50
2018-11-26T14:36:59.838Z,41.43
2018-11-26T14:39:36.493Z,41.80
2018-11-26T14:42:12.880Z,44.73
2018-11-26T14:44:48.844Z,47.50
2018-11-26T14:47:24.807Z,45.17
2018-11-26T14:50:02.227Z,45.63
2018-11-26T14:52:39.275Z,42.43
2018-11-26T14:55:23.346Z,44.50
2018-11-26T14:57:59.082Z,48.43
2018-11-26T15:00:35.078Z,41.97
2018-11-26T15:03:10.847Z,42.83
2018-11-26T15:05:46.706Z,41.77
2018-11-26T15:08:23.352Z,45.03
2018-11-26T15:10:59.285Z,48.87
2018-11-26T15:13:35.376Z,45.87
2018-11-26T15:16:11.028Z,43.30
2018-11-26T15:18:47.160Z,41.93
2018-11-26T15:21:24.034Z,41.57
2018-11-26T15:23:59.491Z,44.43
2018-11-26T15:26:35.568Z,43.83
2018-11-26T15:29:11.947Z,40.73
2018-11-26T15:31:50.302Z,38.53
2018-11-26T15:34:23.922Z,39.93
2018-11-26T15:37:00.095Z,38.47
2018-11-26T15:39:35.904Z,38.20
2018-11-26T15:42:11.825Z,41.70
2018-11-26T15:44:47.983Z,50.30
2018-11-26T15:47:24.209Z,53.50
2018-11-26T15:50:01.382Z,59.03
2018-11-26T15:52:36.698Z,67.37
2018-11-26T15:55:13.756Z,63.67
2018-11-26T15:57:49.787Z,66.90
2018-11-26T16:00:26.830Z,68.00
2018-11-26T16:03:03.137Z,67.00
2018-11-26T16:05:39.137Z,61.53
2018-11-26T16:08:16.394Z,64.80
2018-11-26T16:10:53.142Z,52.33
2018-11-26T16:13:29.658Z,52.97
2018-11-26T16:16:06.064Z,43.77
2018-11-26T16:18:42.626Z,40.80
2018-11-26T16:21:19.766Z,37.63
2018-11-26T16:23:57.550Z,44.17
2018-11-26T16:26:33.337Z,48.80
2018-11-26T16:29:09.982Z,39.67
2018-11-26T16:31:45.721Z,46.47
2018-11-26T16:34:21.889Z,40.03
2018-11-26T16:36:58.041Z,55.67
2018-11-26T16:39:35.101Z,43.13
2018-11-26T16:42:12.136Z,43.23
2018-11-26T16:44:48.772Z,44.57
2018-11-26T16:47:24.946Z,44.77
2018-11-26T16:50:01.965Z,46.40
2018-11-26T16:52:38.791Z,47.60
2018-11-26T16:55:16.408Z,51.27
2018-11-26T16:57:53.595Z,44.60
2018-11-26T17:00:31.034Z,47.03
2018-11-26T17:03:09.651Z,50.03
2018-11-26T17:05:48.650Z,50.40
2018-11-26T17:08:25.646Z,53.57
2018-11-26T17:11:04.200Z,51.07
2018-11-26T17:13:41.774Z,55.90
2018-11-26T17:16:18.559Z,58.13
2018-11-26T17:18:55.737Z,58.37
2018-11-26T17:21:33.666Z,57.93
2018-11-26T17:24:11.155Z,57.27
2018-11-26T17:26:48.960Z,53.73
2018-11-26T17:29:26.721Z,54.50
2018-11-26T17:32:03.671Z,46.30
2018-11-26T17:34:40.873Z,50.43
2018-11-26T17:37:17.074Z,53.20
2018-11-26T17:39:55.307Z,48.10
2018-11-26T17:42:31.813Z,44.27
2018-11-26T17:45:10.006Z,47.73
2018-11-26T17:47:48.857Z,47.07
2018-11-26T17:50:30.663Z,47.93
2018-11-26T17:53:09.070Z,41.37
2018-11-26T17:55:52.064Z,45.43
2018-11-26T17:58:29.281Z,49.90
2018-11-26T18:01:15.763Z,42.23
2018-11-26T18:03:52.418Z,51.93
2018-11-26T18:06:28.884Z,58.40
2018-11-26T18:09:08.833Z,44.97
2018-11-26T18:11:45.117Z,47.80
2018-11-26T18:14:21.602Z,46.43
2018-11-26T18:16:57.830Z,46.73
2018-11-26T18:19:34.341Z,47.00
2018-11-26T18:22:10.354Z,49.83
2018-11-26T18:24:47.512Z,45.27
2018-11-26T18:27:24.440Z,48.73
2018-11-26T18:30:01.706Z,46.13
2018-11-26T18:32:37.522Z,48.63
2018-11-26T18:35:15.383Z,48.03
2018-11-26T18:37:52.414Z,47.93
2018-11-26T18:40:29.774Z,46.97
2018-11-26T18:43:07.109Z,56.57
2018-11-26T18:45:43.891Z,51.23
2018-11-26T18:48:20.692Z,53.23
2018-11-26T18:50:57.575Z,51.17
2018-11-26T18:53:33.427Z,54.33
2018-11-26T18:56:09.482Z,51.40
2018-11-26T18:58:45.569Z,50.07
2018-11-26T19:01:23.311Z,46.67
2018-11-26T19:03:59.873Z,50.97
2018-11-26T19:06:36.037Z,46.00
2018-11-26T19:09:11.873Z,50.77
2018-11-26T19:11:47.692Z,54.17
2018-11-26T19:14:25.660Z,46.97
2018-11-26T19:17:02.221Z,57.87
2018-11-26T19:19:42.127Z,52.90
2018-11-26T19:22:13.932Z,59.07
2018-11-26T19:24:49.920Z,47.47
2018-11-26T19:27:26.020Z,54.53
2018-11-26T19:30:01.828Z,55.47
2018-11-26T19:32:38.429Z,55.73
2018-11-26T19:35:15.658Z,54.40
2018-11-26T19:37:52.240Z,49.83
2018-11-26T19:40:28.872Z,50.60
2018-11-26T19:43:05.253Z,50.00
2018-11-26T19:45:41.638Z,51.17
2018-11-26T19:48:17.680Z,52.47
2018-11-26T19:50:55.001Z,52.00
2018-11-26T19:53:31.072Z,57.40
2018-11-26T19:56:07.319Z,52.07
2018-11-26T19:58:43.850Z,49.17
2018-11-26T20:01:20.814Z,54.93
2018-11-26T20:04:22.592Z,52.87
2018-11-26T20:06:58.703Z,50.10
2018-11-26T20:09:34.752Z,51.53
2018-11-26T20:12:11.179Z,51.00
2018-11-26T20:14:47.848Z,46.80
2018-11-26T20:17:24.352Z,48.23
2018-11-26T20:20:00.278Z,47.30
2018-11-26T20:22:36.017Z,50.27
2018-11-26T20:25:14.124Z,53.77
2018-11-26T20:27:50.900Z,49.83
2018-11-26T20:30:26.683Z,47.60
2018-11-26T20:33:03.279Z,50.50
2018-11-26T20:35:40.014Z,49.10
2018-11-26T20:38:16.667Z,47.03
2018-11-26T20:40:53.397Z,49.70
2018-11-26T20:43:30.166Z,55.00
2018-11-26T20:46:07.535Z,49.23
2018-11-26T20:48:43.516Z,48.83
2018-11-26T20:51:21.126Z,45.80
2018-11-26T20:53:57.142Z,47.50
2018-11-26T20:56:32.989Z,56.13
2018-11-26T20:59:08.892Z,56.63
2018-11-26T21:01:44.834Z,49.37
2018-11-26T21:04:21.438Z,52.57
2018-11-26T21:06:58.118Z,55.63
2018-11-26T21:09:34.507Z,52.30
2018-11-26T21:12:11.439Z,53.77
2018-11-26T21:14:48.105Z,51.93
2018-11-26T21:17:24.265Z,49.67
2018-11-26T21:20:01.097Z,53.93
2018-11-26T21:22:37.240Z,56.73
2018-11-26T21:25:15.207Z,55.80
2018-11-26T21:27:51.374Z,53.70
2018-11-26T21:30:28.427Z,57.47
2018-11-26T21:33:05.995Z,61.60
2018-11-26T21:35:42.860Z,55.77
2018-11-26T21:38:21.155Z,54.17
2018-11-26T21:40:58.108Z,57.67
2018-11-26T21:43:34.592Z,56.20
2018-11-26T21:46:12.133Z,52.80
2018-11-26T21:48:48.664Z,59.67
2018-11-26T21:51:24.783Z,53.63
2018-11-26T21:54:01.487Z,54.30
2018-11-26T21:56:38.346Z,52.60
2018-11-26T21:59:14.512Z,56.07
2018-11-26T22:01:51.241Z,58.73
2018-11-26T22:04:29.056Z,53.00
2018-11-26T22:07:05.734Z,53.87
2018-11-26T22:09:42.917Z,49.33
2018-11-26T22:12:20.124Z,47.77
2018-11-26T22:14:56.485Z,48.43
2018-11-26T22:17:32.709Z,50.17
2018-11-26T22:20:17.160Z,52.20
2018-11-26T22:22:53.405Z,47.73
2018-11-26T22:25:30.241Z,48.67
2018-11-26T22:28:09.080Z,47.43
2018-11-26T22:30:45.403Z,46.87
2018-11-26T22:33:22.247Z,48.63
2018-11-26T22:35:58.334Z,51.53
2018-11-26T22:38:34.320Z,51.93
2018-11-26T22:41:10.155Z,45.27
2018-11-26T22:43:46.348Z,42.43
2018-11-26T22:46:22.241Z,39.17
2018-11-26T22:48:58.183Z,36.90
2018-11-26T22:51:34.171Z,37.67
2018-11-26T22:54:10.111Z,35.63
2018-11-26T22:56:46.168Z,38.43
2018-11-26T22:59:21.995Z,33.37
2018-11-26T23:01:57.894Z,38.40
2018-11-26T23:04:33.736Z,31.23
2018-11-26T23:07:10.649Z,29.93
2018-11-26T23:09:46.842Z,30.23
2018-11-26T23:12:22.913Z,30.73
2018-11-26T23:14:59.025Z,29.03
2018-11-26T23:17:34.801Z,27.30
2018-11-26T23:20:12.077Z,27.73
2018-11-26T23:22:48.492Z,28.00
2018-11-26T23:25:25.099Z,27.43
2018-11-26T23:28:01.422Z,24.97
2018-11-26T23:30:37.252Z,29.53
2018-11-26T23:33:13.530Z,25.30
2018-11-26T23:35:49.355Z,26.87
2018-11-26T23:38:25.256Z,25.70
2018-11-26T23:41:01.279Z,25.57
2018-11-26T23:43:37.290Z,26.33
2018-11-26T23:46:13.283Z,26.17
2018-11-26T23:48:49.062Z,27.57
2018-11-26T23:51:24.972Z,26.87
2018-11-26T23:54:00.897Z,26.53
2018-11-26T23:56:36.852Z,26.20
2018-11-26T23:59:12.617Z,28.73
